Time;durP1;ratioP1;P1;durP2;ratioP2;P2;SDS_P1;SDS_P2;PMS_P1;PMS_P2;Temp;Humidity;BMP_temperature;BMP_pressure;BME280_temperature;BME280_humidity;BME280_pressure;Samples;Min_cycle;Max_cycle;Signal;HPM_P1;HPM_P2
2022/11/13 00:01:59;;;;;;;26.92;17.08;;;9.40;99.90;;;;;;5091225;28;20024;-68
2022/11/13 00:04:25;;;;;;;26.25;16.17;;;9.30;99.90;;;;;;5103580;27;20529;-68
2022/11/13 00:06:50;;;;;;;27.17;16.17;;;9.30;99.90;;;;;;5108011;28;20027;-68
2022/11/13 00:09:16;;;;;;;24.00;15.40;;;9.30;99.90;;;;;;5104221;27;20394;-69
2022/11/13 00:11:42;;;;;;;26.98;16.67;;;9.40;99.90;;;;;;5105528;28;20042;-68
2022/11/13 00:14:07;;;;;;;32.65;16.85;;;9.40;99.90;;;;;;5107276;28;20031;-68
2022/11/13 00:16:33;;;;;;;27.95;18.15;;;9.40;99.90;;;;;;5096356;28;20031;-68
2022/11/13 00:18:58;;;;;;;25.95;17.50;;;9.40;99.90;;;;;;5106978;28;20078;-68
2022/11/13 00:21:26;;;;;;;26.23;16.92;;;9.40;99.90;;;;;;5105438;28;20043;-68
2022/11/13 00:23:52;;;;;;;26.98;18.00;;;9.40;99.90;;;;;;5105735;28;20015;-68
2022/11/13 00:26:21;;;;;;;28.27;17.83;;;9.30;99.90;;;;;;5107494;28;20023;-68
2022/11/13 00:28:55;;;;;;;26.73;17.40;;;9.40;99.90;;;;;;5108315;28;20140;-68
2022/11/13 00:31:21;;;;;;;27.48;17.02;;;9.40;99.90;;;;;;5102995;28;20042;-68
2022/11/13 00:33:47;;;;;;;29.27;18.45;;;9.40;99.90;;;;;;5090637;28;20024;-68
2022/11/13 00:36:19;;;;;;;28.60;19.20;;;9.30;99.90;;;;;;5111619;28;20080;-68
2022/11/13 00:38:44;;;;;;;26.73;17.65;;;9.30;99.90;;;;;;5103140;28;20008;-68
2022/11/13 00:41:10;;;;;;;27.52;16.80;;;9.30;99.90;;;;;;5107604;28;20349;-68
2022/11/13 00:43:36;;;;;;;30.63;17.05;;;9.40;99.90;;;;;;5112425;28;20027;-68
2022/11/13 00:46:02;;;;;;;29.85;18.13;;;9.30;99.90;;;;;;5109074;28;20543;-68
2022/11/13 00:48:28;;;;;;;32.63;19.75;;;9.30;99.90;;;;;;5109795;28;20472;-68
2022/11/13 00:50:54;;;;;;;26.05;18.00;;;9.30;99.90;;;;;;5089602;28;20027;-68
2022/11/13 00:53:20;;;;;;;29.88;19.33;;;9.30;99.90;;;;;;5109446;28;20024;-68
2022/11/13 00:55:46;;;;;;;28.98;19.08;;;9.20;99.90;;;;;;5104288;28;20031;-68
2022/11/13 00:58:12;;;;;;;30.25;20.25;;;9.10;99.90;;;;;;5102071;28;20322;-68
2022/11/13 01:00:38;;;;;;;35.30;21.05;;;9.10;99.90;;;;;;5111061;28;20369;-68
2022/11/13 01:03:04;;;;;;;33.30;21.50;;;9.10;99.90;;;;;;5109579;28;20020;-68
2022/11/13 01:05:30;;;;;;;28.20;18.40;;;9.10;99.90;;;;;;5108096;28;20066;-68
2022/11/13 01:07:56;;;;;;;26.85;16.20;;;9.10;99.90;;;;;;5110050;28;20026;-68
2022/11/13 01:10:23;;;;;;;29.92;17.27;;;9.00;99.90;;;;;;5109014;28;20395;-68
2022/11/13 01:12:48;;;;;;;29.02;18.00;;;9.00;99.90;;;;;;5110432;28;20035;-68
2022/11/13 01:15:14;;;;;;;27.00;18.08;;;9.00;99.90;;;;;;5111261;28;20016;-68
2022/11/13 01:17:40;;;;;;;32.67;17.65;;;9.00;99.90;;;;;;5093216;28;20138;-68
2022/11/13 01:20:06;;;;;;;28.38;18.15;;;9.00;99.90;;;;;;5105833;28;20027;-68
2022/11/13 01:22:32;;;;;;;26.70;17.08;;;9.00;99.90;;;;;;5109186;28;20119;-68
2022/11/13 01:24:57;;;;;;;25.65;16.92;;;9.10;99.90;;;;;;5114001;28;20446;-68
2022/11/13 01:27:23;;;;;;;21.95;15.40;;;9.00;99.90;;;;;;5111344;28;20045;-68
2022/11/13 01:29:49;;;;;;;21.02;14.98;;;9.00;99.90;;;;;;5103969;28;20024;-68
2022/11/13 01:32:14;;;;;;;19.67;14.32;;;9.00;99.90;;;;;;5111797;28;20039;-68
2022/11/13 01:34:40;;;;;;;18.23;12.80;;;9.00;99.90;;;;;;5103917;28;20028;-68
2022/11/13 01:37:06;;;;;;;24.83;15.35;;;8.90;99.90;;;;;;5110897;28;20032;-68
2022/11/13 01:39:31;;;;;;;25.15;17.00;;;8.90;99.90;;;;;;5107061;28;20024;-68
2022/11/13 01:41:57;;;;;;;23.45;15.75;;;8.80;99.90;;;;;;5110314;28;20031;-68
2022/11/13 01:44:22;;;;;;;26.38;16.65;;;8.80;99.90;;;;;;5093414;28;20380;-68
2022/11/13 01:46:54;;;;;;;25.52;16.77;;;8.80;99.90;;;;;;5101351;28;20106;-69
2022/11/13 01:49:36;;;;;;;24.77;17.52;;;8.80;99.90;;;;;;5108166;28;20043;-68
2022/11/13 01:52:13;;;;;;;36.92;21.88;;;8.70;99.90;;;;;;5103917;28;20074;-69
2022/11/13 01:54:49;;;;;;;29.05;18.08;;;8.70;99.90;;;;;;5105459;28;20016;-68
2022/11/13 01:57:16;;;;;;;28.60;18.85;;;8.60;99.90;;;;;;5100275;28;20028;-68
2022/11/13 01:59:57;;;;;;;30.42;20.08;;;8.60;99.90;;;;;;5105924;28;20499;-68
2022/11/13 02:02:22;;;;;;;29.45;19.50;;;8.60;99.90;;;;;;5108210;28;20027;-68
2022/11/13 02:04:48;;;;;;;27.25;17.52;;;8.60;99.90;;;;;;5107149;28;20046;-68
2022/11/13 02:07:16;;;;;;;27.88;18.48;;;8.60;99.90;;;;;;5107665;28;20084;-68
2022/11/13 02:09:45;;;;;;;24.63;16.35;;;8.50;99.90;;;;;;5109531;28;20043;-68
2022/11/13 02:12:14;;;;;;;25.67;15.88;;;8.50;99.90;;;;;;5107487;28;20028;-68
2022/11/13 02:14:43;;;;;;;27.55;16.38;;;8.50;99.90;;;;;;5104682;28;20548;-69
2022/11/13 02:17:13;;;;;;;25.52;16.27;;;8.50;99.90;;;;;;5105810;28;20460;-68
2022/11/13 02:19:44;;;;;;;29.08;17.40;;;8.50;99.90;;;;;;5083353;28;20028;-68
2022/11/13 02:22:40;;;;;;;28.60;17.65;;;8.50;99.90;;;;;;5105833;28;20023;-68
2022/11/13 02:25:07;;;;;;;27.60;16.05;;;8.50;99.90;;;;;;5101597;28;20036;-68
2022/11/13 02:27:41;;;;;;;28.63;16.27;;;8.50;99.90;;;;;;5106714;28;20024;-68
2022/11/13 02:30:29;;;;;;;26.48;16.15;;;8.50;99.90;;;;;;5110147;28;20427;-68
2022/11/13 02:32:56;;;;;;;30.48;17.98;;;8.50;99.90;;;;;;5105004;28;20040;-68
2022/11/13 02:35:33;;;;;;;28.77;17.45;;;8.50;99.90;;;;;;5108751;28;20019;-68
2022/11/13 02:38:01;;;;;;;25.50;18.05;;;8.50;99.90;;;;;;5108506;28;20031;-68
2022/11/13 02:40:28;;;;;;;34.53;19.52;;;8.30;99.90;;;;;;5110054;28;20046;-68
2022/11/13 02:42:54;;;;;;;25.10;16.33;;;8.30;99.90;;;;;;5108661;28;20496;-68
2022/11/13 02:45:20;;;;;;;31.83;18.58;;;8.30;99.90;;;;;;5108349;28;20051;-68
2022/11/13 02:47:46;;;;;;;26.45;17.60;;;8.30;99.90;;;;;;5109561;28;20058;-68
2022/11/13 02:50:12;;;;;;;25.70;18.52;;;8.30;99.90;;;;;;5105307;28;20107;-68
2022/11/13 02:52:37;;;;;;;30.70;16.80;;;8.30;99.90;;;;;;5108155;28;20043;-68
2022/11/13 02:55:04;;;;;;;27.60;16.50;;;8.30;99.90;;;;;;5101830;28;20043;-68
2022/11/13 02:57:30;;;;;;;26.73;17.70;;;8.30;99.90;;;;;;5104796;28;20036;-69
2022/11/13 02:59:55;;;;;;;33.80;19.42;;;8.30;99.90;;;;;;5103015;28;20103;-68
2022/11/13 03:02:21;;;;;;;32.60;18.00;;;8.20;99.90;;;;;;5091175;28;20035;-68
2022/11/13 03:04:46;;;;;;;29.70;19.50;;;8.20;99.90;;;;;;5103380;28;20016;-68
2022/11/13 03:07:12;;;;;;;25.98;17.20;;;8.20;99.90;;;;;;5107724;28;20059;-68
2022/11/13 03:09:39;;;;;;;28.58;18.48;;;8.20;99.90;;;;;;5101953;28;20023;-68
2022/11/13 03:12:06;;;;;;;29.25;19.85;;;8.20;99.90;;;;;;5109088;28;20044;-68
2022/11/13 03:14:31;;;;;;;29.70;17.90;;;8.20;99.90;;;;;;5111382;28;20069;-68
2022/11/13 03:16:57;;;;;;;26.52;17.48;;;8.20;99.90;;;;;;5091744;28;20032;-68
2022/11/13 03:19:23;;;;;;;26.40;16.50;;;8.30;99.90;;;;;;5108209;28;20486;-68
2022/11/13 03:21:49;;;;;;;29.38;17.98;;;8.20;99.90;;;;;;5109813;28;20020;-68
2022/11/13 03:24:14;;;;;;;27.23;16.25;;;8.30;99.90;;;;;;5110647;28;20019;-68
2022/11/13 03:26:40;;;;;;;28.50;17.70;;;8.30;99.90;;;;;;5109292;28;20479;-68
2022/11/13 03:29:05;;;;;;;29.35;17.10;;;8.30;99.90;;;;;;5111258;28;20049;-68
2022/11/13 03:31:31;;;;;;;30.83;17.15;;;8.20;99.90;;;;;;5112908;28;20081;-68
2022/11/13 03:33:57;;;;;;;28.13;17.20;;;8.10;99.90;;;;;;5094701;28;20234;-68
2022/11/13 03:36:23;;;;;;;25.30;16.15;;;8.20;99.90;;;;;;5113124;28;20042;-69
2022/11/13 03:38:49;;;;;;;26.83;17.00;;;8.20;99.90;;;;;;5113476;28;20019;-68
2022/11/13 03:41:14;;;;;;;24.10;15.23;;;8.20;99.90;;;;;;5108436;28;20024;-68
2022/11/13 03:43:41;;;;;;;23.25;14.70;;;8.20;99.90;;;;;;5111029;28;20103;-68
2022/11/13 03:46:07;;;;;;;24.48;15.82;;;8.20;99.90;;;;;;5094481;28;20081;-68
2022/11/13 03:48:32;;;;;;;21.38;15.35;;;8.20;99.90;;;;;;5108273;28;20031;-68
2022/11/13 03:50:59;;;;;;;28.77;16.42;;;8.20;99.90;;;;;;5091233;28;20028;-68
2022/11/13 03:53:24;;;;;;;23.77;15.07;;;8.30;99.90;;;;;;5111516;28;20034;-68
2022/11/13 03:55:50;;;;;;;27.73;16.50;;;8.30;99.90;;;;;;5100691;28;20288;-68
2022/11/13 03:58:16;;;;;;;23.00;15.02;;;8.30;99.90;;;;;;5112933;28;20069;-68
2022/11/13 04:00:43;;;;;;;26.95;15.50;;;8.30;99.90;;;;;;5113699;28;20020;-68
2022/11/13 04:03:09;;;;;;;24.20;15.35;;;8.20;99.90;;;;;;5111042;28;20027;-68
2022/11/13 04:05:34;;;;;;;29.05;16.17;;;8.20;99.90;;;;;;5093438;28;20092;-68
2022/11/13 04:08:00;;;;;;;22.42;16.08;;;8.20;99.90;;;;;;5107354;28;20020;-68
2022/11/13 04:10:26;;;;;;;25.15;15.75;;;8.20;99.90;;;;;;5114123;28;20089;-68
2022/11/13 04:12:51;;;;;;;27.55;15.90;;;8.20;99.90;;;;;;5114516;28;20496;-68
2022/11/13 04:15:17;;;;;;;24.05;14.80;;;8.20;99.90;;;;;;5094011;28;20062;-68
2022/11/13 04:17:43;;;;;;;25.23;16.00;;;8.10;99.90;;;;;;5108996;28;20507;-68
2022/11/13 04:20:09;;;;;;;20.92;13.95;;;8.10;99.90;;;;;;5111685;28;20032;-68
2022/11/13 04:22:35;;;;;;;21.75;14.23;;;8.00;99.90;;;;;;5105258;28;20510;-68
2022/11/13 04:25:01;;;;;;;26.15;15.60;;;8.10;99.90;;;;;;5108257;28;20043;-68
2022/11/13 04:27:26;;;;;;;24.55;16.92;;;8.10;99.90;;;;;;5105450;28;20027;-68
2022/11/13 04:29:52;;;;;;;29.33;18.98;;;8.00;99.90;;;;;;5089508;28;20024;-68
2022/11/13 04:32:18;;;;;;;27.73;16.73;;;8.00;99.90;;;;;;5111816;28;20417;-68
2022/11/13 04:34:43;;;;;;;27.35;16.80;;;8.00;99.90;;;;;;5107406;28;20077;-68
2022/11/13 04:37:09;;;;;;;22.83;15.38;;;8.10;99.90;;;;;;5110151;28;20028;-68
2022/11/13 04:39:34;;;;;;;22.83;14.68;;;8.10;99.90;;;;;;5105660;28;20400;-68
2022/11/13 04:44:44;;;;;;;23.35;15.02;;;8.10;99.90;;;;;;5106337;28;20097;-68
2022/11/13 04:47:10;;;;;;;20.13;14.82;;;8.10;99.90;;;;;;5102410;28;20032;-68
2022/11/13 04:49:35;;;;;;;24.90;16.27;;;8.10;99.90;;;;;;5109964;28;20019;-68
2022/11/13 04:52:01;;;;;;;25.20;15.60;;;8.00;99.90;;;;;;5107201;28;20395;-68
2022/11/13 04:54:26;;;;;;;28.52;17.02;;;8.00;99.90;;;;;;5108266;28;20050;-68
2022/11/13 04:56:52;;;;;;;25.13;16.65;;;8.00;99.90;;;;;;5109392;28;20028;-68
2022/11/13 04:59:17;;;;;;;26.67;17.27;;;7.90;99.90;;;;;;5106332;28;20153;-68
2022/11/13 05:01:43;;;;;;;30.08;16.20;;;7.90;99.90;;;;;;5109124;28;20099;-68
2022/11/13 05:04:13;;;;;;;28.00;17.65;;;7.90;99.90;;;;;;5112667;28;20106;-69
2022/11/13 05:06:39;;;;;;;27.27;15.70;;;7.90;99.90;;;;;;5107721;28;20383;-68
2022/11/13 05:09:05;;;;;;;23.88;15.40;;;7.90;99.90;;;;;;5110671;28;20065;-68
2022/11/13 05:11:30;;;;;;;22.25;13.90;;;7.90;99.90;;;;;;5106020;28;20391;-68
2022/11/13 05:13:56;;;;;;;27.10;15.70;;;7.90;99.90;;;;;;5105260;28;20069;-68
2022/11/13 05:16:21;;;;;;;28.33;16.08;;;7.90;99.90;;;;;;5112262;28;20031;-69
2022/11/13 05:18:47;;;;;;;22.20;15.10;;;7.80;99.90;;;;;;5106122;28;20054;-68
2022/11/13 05:21:13;;;;;;;25.58;15.80;;;7.80;99.90;;;;;;5111883;28;20392;-68
2022/11/13 05:23:39;;;;;;;23.70;15.20;;;7.80;99.90;;;;;;5109732;28;20071;-68
2022/11/13 05:26:09;;;;;;;18.40;13.20;;;7.90;99.90;;;;;;5104865;28;20486;-68
2022/11/13 05:28:36;;;;;;;23.58;14.40;;;7.90;99.90;;;;;;5110495;28;20023;-68
2022/11/13 05:31:10;;;;;;;22.13;13.90;;;7.90;99.90;;;;;;5093104;28;20118;-68
2022/11/13 05:33:37;;;;;;;22.63;14.27;;;7.90;99.90;;;;;;5103564;28;20077;-68
2022/11/13 05:36:09;;;;;;;26.05;14.60;;;7.90;99.90;;;;;;5109341;28;20030;-68
2022/11/13 05:38:35;;;;;;;21.60;15.17;;;7.80;99.90;;;;;;5109512;28;20244;-68
2022/11/13 05:41:01;;;;;;;23.73;14.65;;;7.80;99.90;;;;;;5110650;28;20285;-68
2022/11/13 05:43:27;;;;;;;24.27;15.13;;;7.70;99.90;;;;;;5110179;28;20028;-68
2022/11/13 05:46:09;;;;;;;22.73;12.88;;;7.70;99.90;;;;;;5106002;28;20030;-68
2022/11/13 05:48:34;;;;;;;22.90;14.98;;;7.70;99.90;;;;;;5105938;28;20122;-68
2022/11/13 05:51:11;;;;;;;21.63;13.23;;;7.60;99.90;;;;;;5103289;28;20106;-68
2022/11/13 05:53:36;;;;;;;26.15;14.88;;;7.60;99.90;;;;;;5110866;28;20093;-68
2022/11/13 05:56:09;;;;;;;18.92;12.95;;;7.60;99.90;;;;;;5106736;28;20478;-68
2022/11/13 05:58:35;;;;;;;24.35;13.48;;;7.60;99.90;;;;;;5107248;28;20032;-68
2022/11/13 06:01:08;;;;;;;19.90;13.68;;;7.60;99.90;;;;;;5107715;28;20032;-68
2022/11/13 06:03:33;;;;;;;20.10;12.57;;;7.60;99.90;;;;;;5108765;28;20031;-68
2022/11/13 06:05:59;;;;;;;23.08;14.60;;;7.60;99.90;;;;;;5110476;28;20032;-68
2022/11/13 06:08:25;;;;;;;25.38;15.68;;;7.60;99.90;;;;;;5092930;28;20015;-68
2022/11/13 06:10:51;;;;;;;18.77;12.95;;;7.60;99.90;;;;;;5111802;28;20024;-68
2022/11/13 06:13:17;;;;;;;20.48;12.82;;;7.60;99.90;;;;;;5109627;28;20039;-68
2022/11/13 06:15:42;;;;;;;17.67;11.27;;;7.60;99.90;;;;;;5111153;28;20015;-68
2022/11/13 06:18:08;;;;;;;21.23;11.88;;;7.70;99.90;;;;;;5110979;28;20051;-68
2022/11/13 06:20:35;;;;;;;16.73;10.88;;;7.60;99.90;;;;;;5111144;28;20035;-67
2022/11/13 06:23:01;;;;;;;17.08;10.40;;;7.60;99.90;;;;;;5109524;28;20036;-68
2022/11/13 06:25:27;;;;;;;12.43;8.75;;;7.60;99.90;;;;;;5109034;28;20027;-68
2022/11/13 06:27:53;;;;;;;12.98;9.13;;;7.60;99.90;;;;;;5109214;28;20545;-68
2022/11/13 06:30:19;;;;;;;9.25;8.02;;;7.60;99.90;;;;;;5103249;28;20016;-68
2022/11/13 06:32:52;;;;;;;13.57;9.00;;;7.60;99.90;;;;;;5109346;28;20039;-68
2022/11/13 06:35:17;;;;;;;14.27;9.68;;;7.60;99.90;;;;;;5110123;28;20447;-69
2022/11/13 06:37:43;;;;;;;14.52;9.60;;;7.60;99.90;;;;;;5107261;28;20061;-68
2022/11/13 06:40:09;;;;;;;17.17;11.10;;;7.50;99.90;;;;;;5109331;28;20066;-68
2022/11/13 06:42:34;;;;;;;19.15;11.43;;;7.30;99.90;;;;;;5107942;28;20034;-68
2022/11/13 06:45:00;;;;;;;20.33;13.23;;;7.00;99.90;;;;;;5102612;28;20098;-68
2022/11/13 06:47:27;;;;;;;19.88;13.00;;;7.00;99.90;;;;;;5108435;28;20039;-68
2022/11/13 06:49:52;;;;;;;18.00;12.95;;;6.90;99.90;;;;;;5103626;28;20028;-68
2022/11/13 06:52:18;;;;;;;19.88;13.57;;;6.90;99.90;;;;;;5106487;28;20043;-68
2022/11/13 06:54:43;;;;;;;19.50;12.07;;;6.80;99.90;;;;;;5109611;28;20069;-68
2022/11/13 06:57:09;;;;;;;21.73;13.05;;;6.70;99.90;;;;;;5105893;28;20031;-68
2022/11/13 06:59:35;;;;;;;18.15;12.60;;;6.70;99.90;;;;;;5098885;28;20034;-68
2022/11/13 07:02:01;;;;;;;18.10;11.32;;;6.80;99.90;;;;;;5110794;28;20038;-68
2022/11/13 07:04:27;;;;;;;20.33;11.30;;;6.80;99.90;;;;;;5110213;28;20028;-68
2022/11/13 07:06:52;;;;;;;15.80;11.20;;;6.90;99.90;;;;;;5111183;28;20028;-68
2022/11/13 07:09:18;;;;;;;12.10;8.43;;;7.00;99.90;;;;;;5107982;28;20500;-68
2022/11/13 07:11:43;;;;;;;10.93;8.73;;;7.00;99.90;;;;;;5111135;28;20028;-68
2022/11/13 07:14:12;;;;;;;16.25;9.70;;;7.10;99.90;;;;;;5114198;28;20076;-68
2022/11/13 07:16:37;;;;;;;13.23;8.15;;;7.10;99.90;;;;;;5108661;28;20028;-68
2022/11/13 07:19:03;;;;;;;12.88;9.02;;;7.00;99.90;;;;;;5115777;28;20027;-68
2022/11/13 07:21:29;;;;;;;14.90;9.13;;;7.00;99.90;;;;;;5097278;28;20480;-68
2022/11/13 07:23:54;;;;;;;14.40;8.52;;;7.00;99.90;;;;;;5106451;28;20480;-68
2022/11/13 07:26:21;;;;;;;17.05;11.52;;;7.00;99.90;;;;;;5110263;28;20032;-68
2022/11/13 07:28:47;;;;;;;16.77;11.20;;;7.00;99.90;;;;;;5112295;28;20016;-68
2022/11/13 07:31:14;;;;;;;18.95;11.30;;;7.00;99.90;;;;;;5112913;28;20910;-68
2022/11/13 07:33:40;;;;;;;17.15;11.60;;;7.00;99.90;;;;;;5108966;28;20031;-68
2022/11/13 07:36:07;;;;;;;16.13;11.25;;;7.00;99.90;;;;;;5112443;28;20026;-68
2022/11/13 07:38:33;;;;;;;16.50;11.10;;;7.10;99.90;;;;;;5110199;28;20020;-68
2022/11/13 07:40:58;;;;;;;18.42;11.73;;;7.10;99.90;;;;;;5112968;28;20068;-68
2022/11/13 07:43:24;;;;;;;19.50;11.13;;;7.10;99.90;;;;;;5100215;28;20085;-68
2022/11/13 07:45:53;;;;;;;17.17;10.77;;;7.00;99.90;;;;;;5107940;28;20441;-68
2022/11/13 07:48:20;;;;;;;19.63;12.50;;;7.10;99.90;;;;;;5108459;28;20034;-68
2022/11/13 07:50:46;;;;;;;18.55;12.55;;;7.10;99.90;;;;;;5111900;28;20035;-69
2022/11/13 07:53:11;;;;;;;20.60;11.93;;;7.10;99.90;;;;;;5109711;28;20031;-69
2022/11/13 07:55:37;;;;;;;17.30;12.18;;;7.10;99.90;;;;;;5115662;28;20019;-69
2022/11/13 07:58:04;;;;;;;17.45;10.93;;;7.10;99.90;;;;;;5107461;28;20020;-69
2022/11/13 08:00:32;;;;;;;15.27;10.55;;;7.20;99.90;;;;;;5111870;28;20050;-70
2022/11/13 08:03:03;;;;;;;21.17;13.13;;;7.20;99.90;;;;;;5111952;28;20027;-69
2022/11/13 08:05:29;;;;;;;17.55;12.18;;;7.20;99.90;;;;;;5112426;28;20020;-69
2022/11/13 08:07:55;;;;;;;23.27;13.60;;;7.30;99.90;;;;;;5108143;28;20024;-69
2022/11/13 08:10:21;;;;;;;22.05;12.80;;;7.30;99.90;;;;;;5108810;28;20031;-69
2022/11/13 08:12:47;;;;;;;20.05;12.80;;;7.30;99.90;;;;;;5113238;28;20414;-69
2022/11/13 08:15:13;;;;;;;22.02;13.50;;;7.40;99.90;;;;;;5114190;28;20032;-68
2022/11/13 08:17:38;;;;;;;20.70;13.77;;;7.30;99.90;;;;;;5108009;28;20027;-69
2022/11/13 08:20:06;;;;;;;22.40;14.27;;;7.40;99.90;;;;;;5111341;28;20326;-68
2022/11/13 08:22:31;;;;;;;20.70;13.77;;;7.40;99.90;;;;;;5109025;28;20031;-69
2022/11/13 08:24:59;;;;;;;25.08;13.98;;;7.40;99.90;;;;;;5113258;28;20101;-69
2022/11/13 08:27:24;;;;;;;21.58;12.85;;;7.40;99.90;;;;;;5112120;28;20096;-69
2022/11/13 08:29:50;;;;;;;22.63;13.65;;;7.40;99.90;;;;;;5094809;28;20020;-69
2022/11/13 08:32:18;;;;;;;22.10;13.38;;;7.50;99.90;;;;;;5086121;28;20461;-69
2022/11/13 08:34:44;;;;;;;22.52;14.18;;;7.60;99.90;;;;;;5114467;28;20052;-70
2022/11/13 08:37:10;;;;;;;23.88;14.68;;;7.60;99.90;;;;;;5108855;28;20023;-69
2022/11/13 08:39:35;;;;;;;19.38;12.75;;;7.70;99.90;;;;;;5086337;28;20521;-69
2022/11/13 08:42:02;;;;;;;20.83;14.02;;;7.80;99.90;;;;;;5108630;28;20061;-68
2022/11/13 08:44:28;;;;;;;26.05;13.68;;;7.80;99.90;;;;;;5106134;28;20012;-69
2022/11/13 08:46:53;;;;;;;19.23;13.70;;;7.80;99.90;;;;;;5107325;28;20102;-68
2022/11/13 08:49:19;;;;;;;23.48;13.70;;;7.80;99.90;;;;;;5110438;28;20028;-69
2022/11/13 08:51:44;;;;;;;23.23;14.63;;;7.80;99.90;;;;;;5111557;28;20026;-68
2022/11/13 08:54:10;;;;;;;19.98;14.32;;;7.80;99.90;;;;;;5110795;28;20099;-69
2022/11/13 08:56:36;;;;;;;28.65;16.60;;;7.80;99.90;;;;;;5113001;28;20030;-69
2022/11/13 08:59:02;;;;;;;23.77;16.65;;;7.90;99.90;;;;;;5108996;28;20019;-68
2022/11/13 09:01:27;;;;;;;25.48;17.40;;;7.90;99.90;;;;;;5106838;28;20032;-68
2022/11/13 09:03:53;;;;;;;23.25;15.30;;;7.90;99.90;;;;;;5111042;28;20060;-68
2022/11/13 09:06:18;;;;;;;20.08;13.88;;;8.00;99.90;;;;;;5107377;28;20492;-69
2022/11/13 09:08:44;;;;;;;22.77;15.30;;;8.10;99.90;;;;;;5106294;28;20018;-69
2022/11/13 09:11:10;;;;;;;25.17;16.70;;;8.20;99.90;;;;;;5109758;28;20127;-69
2022/11/13 09:13:36;;;;;;;21.10;14.02;;;8.20;99.90;;;;;;5106875;28;20028;-69
2022/11/13 09:16:02;;;;;;;16.58;11.48;;;8.30;99.90;;;;;;5099883;28;20028;-69
2022/11/13 09:18:28;;;;;;;17.67;12.65;;;8.50;99.90;;;;;;5112700;28;20039;-70
2022/11/13 09:20:59;;;;;;;16.65;12.43;;;8.60;99.90;;;;;;5109067;28;20421;-69
2022/11/13 09:23:25;;;;;;;18.38;13.93;;;8.70;99.90;;;;;;5106721;28;20018;-68
2022/11/13 09:25:50;;;;;;;19.98;14.27;;;8.90;99.90;;;;;;5110679;28;20047;-68
2022/11/13 09:28:16;;;;;;;21.40;15.02;;;9.00;99.90;;;;;;5108467;28;20028;-68
2022/11/13 09:30:41;;;;;;;19.00;14.15;;;9.10;99.90;;;;;;5103835;28;20016;-69
2022/11/13 09:33:09;;;;;;;22.13;14.57;;;9.10;99.90;;;;;;5108439;28;20097;-69
2022/11/13 09:35:35;;;;;;;16.08;12.25;;;9.30;99.90;;;;;;5106622;28;20019;-69
2022/11/13 09:38:06;;;;;;;19.42;13.90;;;9.50;99.90;;;;;;5093543;28;20093;-68
2022/11/13 09:40:49;;;;;;;15.60;11.75;;;9.50;99.90;;;;;;5108686;28;20472;-69
2022/11/13 09:43:33;;;;;;;15.52;11.32;;;9.60;99.90;;;;;;5104984;28;20457;-69
2022/11/13 09:46:09;;;;;;;16.67;12.23;;;9.70;99.90;;;;;;5104028;28;20081;-69
2022/11/13 09:48:39;;;;;;;12.60;9.43;;;9.80;99.90;;;;;;5106702;28;20031;-69
2022/11/13 09:51:36;;;;;;;14.52;10.70;;;9.90;99.90;;;;;;5105436;28;20023;-68
2022/11/13 09:54:05;;;;;;;14.82;11.05;;;10.10;99.90;;;;;;5088972;28;20131;-69
2022/11/13 09:56:59;;;;;;;13.60;11.00;;;10.20;99.90;;;;;;5110328;28;20111;-69
2022/11/13 09:59:30;;;;;;;;;;;10.30;99.90;;;;;;5106418;28;20036;-70
2022/11/13 10:02:16;;;;;;;14.73;10.77;;;10.50;99.90;;;;;;5107795;28;19908;-71
2022/11/13 10:05:03;;;;;;;11.70;9.20;;;10.60;99.90;;;;;;5099809;28;20098;-71
2022/11/13 10:07:34;;;;;;;13.20;10.05;;;10.70;99.90;;;;;;5106869;28;20102;-70
2022/11/13 10:10:35;;;;;;;15.17;10.27;;;10.80;99.90;;;;;;5103228;28;20491;-71
2022/11/13 10:13:01;;;;;;;13.05;9.90;;;10.90;99.90;;;;;;5105675;28;20031;-69
2022/11/13 10:15:28;;;;;;;12.80;9.35;;;11.00;99.90;;;;;;5106282;28;20026;-69
2022/11/13 10:18:00;;;;;;;11.07;8.57;;;11.10;99.90;;;;;;5100565;28;20031;-69
2022/11/13 10:21:10;;;;;;;11.45;9.75;;;11.20;99.90;;;;;;5102161;28;20058;-69
2022/11/13 10:23:37;;;;;;;10.13;8.95;;;11.30;99.90;;;;;;5102763;28;20035;-69
2022/11/13 10:26:15;;;;;;;12.70;8.50;;;11.40;99.90;;;;;;5102946;28;20030;-71
2022/11/13 10:28:41;;;;;;;12.75;9.13;;;11.40;99.90;;;;;;5104136;28;20027;-70
2022/11/13 10:31:11;;;;;;;15.13;8.85;;;11.50;99.90;;;;;;5101490;28;20023;-69
2022/11/13 10:33:37;;;;;;;12.38;10.15;;;11.50;99.90;;;;;;5107019;28;20062;-70
2022/11/13 10:36:30;;;;;;;12.00;10.25;;;11.60;99.90;;;;;;5103556;28;20068;-70
2022/11/13 10:39:04;;;;;;;14.80;9.60;;;11.60;99.90;;;;;;5105337;28;20024;-69
2022/11/13 10:41:31;;;;;;;14.40;9.73;;;11.70;99.90;;;;;;5105010;28;20487;-71
2022/11/13 10:44:17;;;;;;;11.63;9.80;;;11.60;99.90;;;;;;5106205;28;20019;-71
2022/11/13 10:46:42;;;;;;;11.07;9.50;;;11.70;99.90;;;;;;5105916;28;20027;-70
2022/11/13 10:49:16;;;;;;;14.32;9.90;;;11.80;99.90;;;;;;5104960;28;20464;-70
2022/11/13 10:51:42;;;;;;;12.55;9.80;;;11.90;99.90;;;;;;5102037;28;20032;-70
2022/11/13 10:54:24;;;;;;;14.73;10.65;;;11.90;99.90;;;;;;5100030;28;20043;-70
2022/11/13 10:57:05;;;;;;;11.32;8.90;;;11.90;99.90;;;;;;5107726;28;20024;-70
2022/11/13 10:59:40;;;;;;;14.13;10.10;;;11.90;99.90;;;;;;5100559;28;20480;-70
2022/11/13 11:02:20;;;;;;;11.35;8.80;;;11.90;99.90;;;;;;5091159;28;20039;-70
2022/11/13 11:04:46;;;;;;;13.10;9.18;;;11.90;99.90;;;;;;5101901;28;20024;-71
2022/11/13 11:07:17;;;;;;;13.43;8.55;;;12.00;99.90;;;;;;5100970;28;20480;-70
2022/11/13 11:09:47;;;;;;;11.05;9.55;;;12.10;99.90;;;;;;5107971;28;20020;-70
2022/11/13 11:12:19;;;;;;;10.35;8.35;;;12.10;99.90;;;;;;5104978;28;20042;-71
2022/11/13 11:14:54;;;;;;;9.60;8.30;;;12.10;99.90;;;;;;5103836;28;20127;-71
2022/11/13 11:17:26;;;;;;;12.32;10.05;;;12.20;99.90;;;;;;5101507;28;20505;-70
2022/11/13 11:19:56;;;;;;;;;;;12.20;99.90;;;;;;5099908;28;20059;-69
2022/11/13 11:22:24;;;;;;;10.73;9.10;;;12.30;99.90;;;;;;5100704;28;19908;-70
2022/11/13 11:25:03;;;;;;;10.70;8.15;;;12.30;99.90;;;;;;5086918;28;20027;-76
2022/11/13 11:27:38;;;;;;;9.82;8.52;;;12.40;99.90;;;;;;5108013;28;20168;-69
2022/11/13 11:30:16;;;;;;;14.13;8.52;;;12.40;99.90;;;;;;5100360;28;20488;-68
2022/11/13 11:33:07;;;;;;;9.77;8.00;;;12.40;99.90;;;;;;5102947;28;20278;-68
2022/11/13 11:35:44;;;;;;;11.23;8.07;;;12.40;99.90;;;;;;5087470;28;20633;-68
2022/11/13 11:38:36;;;;;;;9.02;7.55;;;12.50;99.90;;;;;;5100395;28;20129;-68
2022/11/13 11:41:11;;;;;;;7.53;6.13;;;12.50;99.90;;;;;;5104144;28;20372;-68
2022/11/13 11:43:50;;;;;;;11.43;8.45;;;12.50;99.90;;;;;;5104375;28;20023;-68
2022/11/13 11:46:23;;;;;;;13.05;8.40;;;12.60;99.90;;;;;;5099195;28;20024;-68
2022/11/13 11:48:50;;;;;;;9.63;7.60;;;12.70;99.90;;;;;;5088836;28;20588;-68
2022/11/13 11:51:21;;;;;;;12.25;8.00;;;12.70;99.90;;;;;;5104129;28;20028;-68
2022/11/13 11:54:09;;;;;;;12.20;7.45;;;12.70;99.90;;;;;;5104541;28;20110;-67
2022/11/13 11:56:45;;;;;;;10.82;7.55;;;12.70;99.90;;;;;;5107331;28;20020;-68
2022/11/13 11:59:17;;;;;;;12.25;7.25;;;12.80;99.90;;;;;;5064701;28;20984;-68
2022/11/13 12:01:58;;;;;;;10.20;7.25;;;12.90;99.90;;;;;;5097124;28;20015;-68
2022/11/13 12:04:52;;;;;;;10.98;7.30;;;12.90;99.90;;;;;;5096887;28;20691;-69
2022/11/13 12:07:30;;;;;;;10.82;7.68;;;13.00;99.90;;;;;;5103529;28;20036;-68
2022/11/13 12:10:16;;;;;;;11.68;7.25;;;13.10;99.90;;;;;;5086703;28;20432;-68
2022/11/13 12:13:09;;;;;;;11.55;6.90;;;13.20;99.90;;;;;;5100121;28;20040;-69
2022/11/13 12:15:54;;;;;;;;;;;13.20;99.90;;;;;;5078634;28;20487;-68
2022/11/13 12:18:38;;;;;;;12.43;6.15;;;13.20;99.90;;;;;;5098471;28;19922;-76
2022/11/13 12:21:41;;;;;;;10.25;6.38;;;13.20;99.90;;;;;;5098664;28;20093;-69
2022/11/13 12:24:21;;;;;;;6.10;5.50;;;13.20;99.90;;;;;;5077308;28;20034;-69
2022/11/13 12:27:15;;;;;;;7.53;5.57;;;13.20;99.90;;;;;;5096301;28;20024;-68
2022/11/13 12:30:06;;;;;;;6.82;5.45;;;13.30;99.90;;;;;;5097834;28;20024;-69
2022/11/13 12:32:52;;;;;;;6.05;5.32;;;13.30;99.90;;;;;;5098999;28;20482;-69
2022/11/13 12:35:19;;;;;;;7.65;5.68;;;13.30;99.90;;;;;;5097070;27;20016;-69
2022/11/13 12:38:11;;;;;;;9.35;6.03;;;13.30;99.90;;;;;;5093624;28;20030;-69
2022/11/13 12:41:07;;;;;;;6.35;4.30;;;13.30;99.90;;;;;;5098124;28;20055;-68
2022/11/13 12:44:06;;;;;;;4.95;4.45;;;13.30;99.90;;;;;;5095063;28;20107;-69
2022/11/13 12:46:37;;;;;;;8.05;4.63;;;13.40;99.90;;;;;;5095881;28;20568;-69
2022/11/13 12:49:23;;;;;;;5.88;4.25;;;13.50;99.90;;;;;;5098790;28;20042;-69
2022/11/13 12:51:54;;;;;;;6.15;4.25;;;13.50;99.90;;;;;;5102465;28;20514;-68
2022/11/13 12:54:32;;;;;;;4.18;3.78;;;13.60;99.90;;;;;;5098103;28;20289;-68